Grand Marais, Minnesota
Current Conditions -  °F | °C
As of 12:41 PM on Friday 21 Nov 2014 (Local Time) from KCKC Reporting Station
Broken Clouds Broken Clouds  
Wind Chill: -14°   Ceiling: 8000
Heat Index: -7°   Visibility: 10mi
Dew Point: -12°   Wind: 13mph
Humidity: 68%   Direction: 180°S
Pressure: 29.9"   Gusts: 30mph
Location:  47.75°N, 90.33°W
Report Text: KCKC 211841Z AUTO 18011G26KT 150V210 10SM BKN080 M07/M12 A2990 RMK AO2
Loading
Personal Weather Stations






























Interactive Weather Map New forecast layout! Learn more

10-Day Weather Forecast

Advertisements
Track Severe Weather on mobile